New Harbor, ME (Heathkit)

43° 52' 34"N, 69° 29' 40"W, Elevation 65 ft.
Eastern Time

Hourly observations for the last 72 hours

Date Time Temperature (°F) Humi-
dity

(%)
Wind
(mph)
Pressure Rain (in)
Air Dew 6 Hour 1 Hr 3 Hr 6 Hr Day
Alt
(in)
Sea
Level

(mb)
Max Min
19 09:00 18 18 99 SSW 5 G 11 29.43 996.6 0.00
19 08:00 16 16 99 SSW 6 G 14 29.43 996.6 0.00
19 07:00 17 17 36 16 99 SSW 8 G 15 29.42 996.3 0.00
19 06:00 22 22 99 WSW 7 G 15 29.44 997.0 0.00
19 05:00 32 32 99 SW 7 G 11 29.43 996.6 0.00
19 04:00 36 36 99 SSE 7 G 18 29.46 997.7 0.00
19 03:00 35 35 99 SSE 10 G 21 29.51 999.4 0.00
19 02:00 34 34 99 SSE 7 G 23 29.59 1002.1 0.00
19 01:00 33 33 33 17 99 SSE 9 G 19 29.66 1004.4 0.00
19 00:00 31 31 99 SE 7 G 18 29.74 1007.1 0.00
18 23:00 29 29 99 SSE 10 G 25 29.81 1009.5 0.00
18 22:00 27 27 99 SSE 6 G 10 29.86 1011.2 0.00
18 21:00 25 25 99 SE 4 G 9 29.94 1013.9 0.00
18 20:00 23 23 99 ESE 4 G 6 30.01 1016.3 0.00
18 19:00 20 20 20 12 99 S 4 G 7 30.08 1018.7 0.00
18 18:00 17 17 98 SW 1 G 5 30.13 1020.4 0.00
18 17:00 17 16 96 ESE 1 G 2 30.17 1021.7 0.00
18 16:00 17 14 89 SSW 1 G 2 30.22 1023.4 0.00
18 15:00 16 12 85 SW 1 G 2 30.24 1024.1 0.00
18 14:00 15 11 85 E 3 G 7 30.25 1024.4 0.00
18 13:00 14 10 14 2 85 SE 5 G 9 30.28 1025.4 0.00
18 12:00 14 10 85 S 3 G 9 30.33 1027.1 0.00
18 11:00 11 8 86 SSW 4 G 7 30.38 1028.8 0.00
18 10:00 8 5 88 SE 2 G 8 30.41 1029.8 0.00
18 09:00 6 4 92 SW 3 G 8 30.43 1030.5 0.00
18 08:00 5 4 95 S 2 G 10 30.44 1030.9 0.00
18 07:00 4 3 5 1 94 S 3 G 12 30.45 1031.2 0.00
18 06:00 4 3 96 SSW 2 G 7 30.46 1031.5 0.00
18 05:00 4 3 95 SSW 3 G 6 30.45 1031.2 0.00
18 04:00 3 2 94 S 6 G 17 30.45 1031.2 0.00
18 03:00 4 2 93 S 8 G 14 30.45 1031.2 0.00
18 02:00 4 2 90 SW 6 G 16 30.48 1032.2 0.00
18 01:00 5 2 9 2 89 S 6 G 15 30.48 1032.2 0.00
18 00:00 5 3 93 S 3 G 12 30.50 1032.9 0.00
17 23:00 5 4 94 S 4 G 12 30.49 1032.5 0.00
17 22:00 5 3 93 SW 3 G 10 30.45 1031.2 0.00
17 21:00 6 4 90 SSE 2 G 10 30.45 1031.2 0.00
17 20:00 8 5 87 S 3 G 14 30.49 1032.5 0.00
17 19:00 9 6 15 8 88 SSW 6 G 15 30.47 1031.9 0.00
17 18:00 10 7 88 SSW 6 G 15 30.44 1030.9 0.00
17 17:00 12 9 88 SW 7 G 17 30.41 1029.8 0.00
17 16:00 13 10 88 SSW 7 G 13 30.36 1028.1 0.00
17 15:00 15 11 82 SW 8 G 18 30.33 1027.1 0.00
17 14:00 15 11 84 SSW 5 G 17 30.31 1026.4 0.00
17 13:00 13 9 13 4 84 SSW 10 G 20 30.29 1025.8 0.00
17 12:00 12 8 85 SSW 6 G 22 30.31 1026.4 0.00
17 11:00 10 6 85 S 11 G 23 30.32 1026.8 0.00
17 10:00 7 5 93 SSW 5 G 18 30.31 1026.4 0.00
17 09:00 7 5 92 SW 10 G 28 30.29 1025.8 0.00
17 08:00 7 5 93 SSW 7 G 18 30.27 1025.1 0.00
17 07:00 8 7 21 8 96 S 11 G 21 30.22 1023.4 0.00
17 06:00 11 11 99 S 5 G 15 30.17 1021.7 0.00
17 05:00 12 12 98 SSW 7 G 14 30.11 1019.7 0.00
17 04:00 14 14 99 SSW 6 G 17 30.06 1018.0 0.00
17 03:00 16 16 99 SSW 8 G 18 30.02 1016.6 0.00
17 02:00 18 18 99 S 8 G 18 29.97 1014.9 0.00
17 01:00 21 21 29 19 99 SSW 9 G 19 29.92 1013.2 0.00
17 00:00 22 22 99 S 6 G 12 29.87 1011.5 0.24
16 23:00 24 24 99 S 6 G 16 29.83 1010.2 0.24
16 22:00 26 26 99 S 4 G 20 29.78 1008.5 0.24
16 21:00 27 27 99 S 6 G 16 29.76 1007.8 0.24
16 20:00 28 28 99 SSE 3 G 21 29.72 1006.5 0.24
16 19:00 29 29 33 25 99 S 5 G 15 29.68 1005.1 0.06 0.24
16 18:00 29 29 99 S 5 G 20 29.67 1004.8 0.24
16 17:00 30 30 99 S 7 G 19 29.62 1003.1 0.24
16 16:00 31 31 99 SSE 7 G 20 29.56 1001.0 0.01 0.06 0.24
16 15:00 32 32 99 S 5 G 11 29.51 999.4 0.01 0.23
16 14:00 32 32 99 SSE 5 G 15 29.48 998.3 0.04 0.22
16 13:00 33 33 34 28 99 ESE 8 G 20 29.48 998.3 0.06 0.14 0.18 0.18
16 12:00 33 33 99 ESE 6 G 13 29.52 999.7 0.03 0.12
16 11:00 33 33 99 ESE 4 G 11 29.59 1002.1 0.05 0.09
16 10:00 34 34 99 ESE 3 G 9 29.65 1004.1 0.04 0.04 0.04

Data generated by WxSolution Version 1.9.1.5, Build 2018.05.20.